Time;durP1;ratioP1;P1;durP2;ratioP2;P2;SDS_P1;SDS_P2;PMS_P1;PMS_P2;Temp;Humidity;BMP_temperature;BMP_pressure;BME280_temperature;BME280_humidity;BME280_pressure;Samples;Min_cycle;Max_cycle;Signal;HPM_P1;HPM_P2
2021/04/13 00:00:23;;;;;;;25.80;19.83;;;;;;;1.70;100.00;96954.72;1046194;28;20024;-77
2021/04/13 00:01:18;;;;;;;25.52;19.63;;;;;;;1.62;100.00;96957.47;1046577;28;20029;-79
2021/04/13 00:01:48;;;;;;;26.30;19.65;;;;;;;1.56;100.00;96959.06;1046683;28;20041;-77
2021/04/13 00:02:40;;;;;;;28.13;19.63;;;;;;;1.51;100.00;96953.53;1042655;28;20014;-77
2021/04/13 00:03:10;;;;;;;28.00;20.98;;;;;;;1.55;100.00;96946.88;1042493;28;20502;-77
2021/04/13 00:03:48;;;;;;;32.07;21.63;;;;;;;1.62;100.00;96960.13;1042563;28;20076;-77
2021/04/13 00:04:19;;;;;;;28.13;21.55;;;;;;;1.66;100.00;96954.28;1046483;28;20025;-77
2021/04/13 00:05:11;;;;;;;25.17;20.20;;;;;;;1.69;100.00;96958.34;1042589;28;20021;-78
2021/04/13 00:05:48;;;;;;;25.95;19.90;;;;;;;1.72;100.00;96955.34;1038646;28;20030;-78
2021/04/13 00:06:29;;;;;;;26.30;21.05;;;;;;;1.72;100.00;96953.50;1042781;28;20467;-76
2021/04/13 00:06:59;;;;;;;28.60;21.27;;;;;;;1.70;100.00;96952.91;1047274;28;20013;-77
2021/04/13 00:07:30;;;;;;;25.67;19.03;;;;;;;1.69;100.00;96964.44;1046409;28;20025;-78
2021/04/13 00:08:02;;;;;;;26.20;21.23;;;;;;;1.74;100.00;96958.59;1046417;28;20017;-77
2021/04/13 00:08:33;;;;;;;26.55;20.38;;;;;;;1.80;100.00;96957.84;1046091;28;20095;-77
2021/04/13 00:09:16;;;;;;;27.00;21.23;;;;;;;1.75;100.00;96955.78;1042670;28;20025;-77
2021/04/13 00:09:46;;;;;;;25.98;19.55;;;;;;;1.77;100.00;96958.22;1042918;28;20021;-77
2021/04/13 00:10:20;;;;;;;27.13;20.80;;;;;;;1.77;100.00;96955.56;1038650;28;20045;-78
2021/04/13 00:10:56;;;;;;;27.10;20.35;;;;;;;1.76;100.00;96959.22;1038262;28;20553;-77
2021/04/13 00:11:26;;;;;;;26.63;20.50;;;;;;;1.78;100.00;96951.94;1034151;28;20411;-77
2021/04/13 00:12:01;;;;;;;26.20;20.40;;;;;;;1.76;100.00;96957.41;1031444;28;20055;-77
2021/04/13 00:12:32;;;;;;;27.52;20.50;;;;;;;1.75;100.00;96957.59;1035951;28;20433;-78
2021/04/13 00:13:02;;;;;;;27.17;19.77;;;;;;;1.79;100.00;96956.19;1039054;28;20018;-76
2021/04/13 00:13:34;;;;;;;27.67;22.20;;;;;;;1.81;100.00;96956.84;1034515;28;20030;-79
2021/04/13 00:14:06;;;;;;;25.08;19.85;;;;;;;1.79;100.00;96951.75;1037543;28;20414;-79
2021/04/13 00:14:39;;;;;;;26.30;20.42;;;;;;;1.76;100.00;96952.13;1038464;28;20029;-78
2021/04/13 00:15:18;;;;;;;24.45;18.92;;;;;;;1.72;100.00;96950.06;1035840;28;20070;-77
2021/04/13 00:15:50;;;;;;;27.05;19.83;;;;;;;1.78;100.00;96952.75;1038375;28;20116;-77
2021/04/13 00:16:23;;;;;;;25.90;19.73;;;;;;;1.76;100.00;96954.75;1038265;28;20317;-77
2021/04/13 00:16:55;;;;;;;24.42;18.85;;;;;;;1.75;100.00;96954.97;1041149;28;20070;-77
2021/04/13 00:17:28;;;;;;;26.40;20.15;;;;;;;1.70;100.00;96958.16;1038728;28;20038;-77
2021/04/13 00:17:58;;;;;;;26.98;20.35;;;;;;;1.73;100.00;96954.31;1038218;28;20018;-78
2021/04/13 00:18:29;;;;;;;23.87;19.70;;;;;;;1.73;100.00;96949.88;1037948;28;20032;-77
2021/04/13 00:18:59;;;;;;;26.87;20.13;;;;;;;1.75;100.00;96953.13;1034370;28;20117;-77
2021/04/13 00:19:37;;;;;;;25.20;19.90;;;;;;;1.73;100.00;96954.31;1034426;28;20022;-77
2021/04/13 00:20:18;;;;;;;27.77;21.23;;;;;;;1.74;100.00;96954.16;1035921;28;20114;-78
2021/04/13 00:20:55;;;;;;;27.05;20.65;;;;;;;1.69;100.00;96956.53;1036724;28;20038;-77
2021/04/13 00:21:37;;;;;;;24.58;19.58;;;;;;;1.69;100.00;96958.34;1037495;28;20069;-77
2021/04/13 00:22:07;;;;;;;24.67;19.70;;;;;;;1.60;100.00;96959.50;1040346;28;20052;-77
2021/04/13 00:22:39;;;;;;;25.93;19.90;;;;;;;1.61;100.00;96950.59;1036778;28;20515;-77
2021/04/13 00:23:09;;;;;;;24.42;19.50;;;;;;;1.60;100.00;96954.22;1036046;28;20026;-77
2021/04/13 00:23:39;;;;;;;29.67;20.90;;;;;;;1.60;100.00;96960.31;1034272;28;20034;-77
2021/04/13 00:24:12;;;;;;;26.73;20.63;;;;;;;1.58;100.00;96948.31;1034621;28;20157;-76
2021/04/13 00:24:42;;;;;;;26.25;19.67;;;;;;;1.64;100.00;96955.47;1042470;28;20021;-77
2021/04/13 00:25:30;;;;;;;27.33;20.63;;;;;;;1.65;100.00;96954.47;1038253;28;20034;-77
2021/04/13 00:26:02;;;;;;;23.70;18.98;;;;;;;1.71;100.00;96957.16;1033177;28;20442;-77
2021/04/13 00:26:33;;;;;;;29.23;21.45;;;;;;;1.67;100.00;96955.09;1030107;28;20179;-77
2021/04/13 00:27:04;;;;;;;32.33;20.37;;;;;;;1.65;100.00;96954.47;1035281;28;20029;-77
2021/04/13 00:27:34;;;;;;;27.27;19.83;;;;;;;1.63;100.00;96949.38;1034574;28;20058;-78
2021/04/13 00:28:06;;;;;;;27.73;21.50;;;;;;;1.62;100.00;96955.66;1038097;28;20018;-77
2021/04/13 00:28:46;;;;;;;25.98;19.48;;;;;;;1.65;100.00;96952.66;1034408;28;20101;-77
2021/04/13 00:29:22;;;;;;;23.92;19.20;;;;;;;1.68;100.00;96951.44;1031549;28;20054;-77
2021/04/13 00:30:04;;;;;;;24.92;18.75;;;;;;;1.68;99.69;96956.72;1032632;28;20373;-77
2021/04/13 00:30:46;;;;;;;22.60;18.38;;;;;;;1.64;99.65;96960.72;1034334;28;20038;-76
2021/04/13 00:31:45;;;;;;;24.13;19.05;;;;;;;1.66;100.00;96954.28;1042433;28;20033;-78
2021/04/13 00:32:20;;;;;;;24.08;18.33;;;;;;;1.60;100.00;96962.13;1042668;28;20032;-77
2021/04/13 00:32:59;;;;;;;26.70;19.00;;;;;;;1.58;100.00;96949.13;1039252;28;20030;-76
2021/04/13 00:33:32;;;;;;;27.05;20.70;;;;;;;1.50;100.00;96957.19;1038744;28;20028;-77
2021/04/13 00:34:03;;;;;;;29.25;22.27;;;;;;;1.51;100.00;96956.97;1030923;28;20030;-77
2021/04/13 00:34:45;;;;;;;25.40;19.37;;;;;;;1.53;100.00;96957.59;1034083;28;20062;-76
2021/04/13 00:35:44;;;;;;;28.00;21.08;;;;;;;1.56;100.00;96959.88;1040810;28;20298;-77
2021/04/13 00:36:10;;;;;;;28.80;20.20;;;;;;;1.55;100.00;96952.16;1042697;28;20530;-78
2021/04/13 00:36:41;;;;;;;25.73;19.70;;;;;;;1.54;100.00;96959.25;1033473;28;20011;-76
2021/04/13 00:37:23;;;;;;;27.55;20.15;;;;;;;1.60;100.00;96956.88;1025023;29;20062;-77
2021/04/13 00:38:15;;;;;;;30.77;19.70;;;;;;;1.52;100.00;96948.06;1031250;28;20034;-76
2021/04/13 00:38:47;;;;;;;26.42;19.20;;;;;;;1.49;100.00;96948.47;1041518;28;20422;-77
2021/04/13 00:39:23;;;;;;;23.58;18.30;;;;;;;1.58;100.00;96953.59;1047035;28;20150;-77
2021/04/13 00:39:55;;;;;;;26.67;20.02;;;;;;;1.64;100.00;96950.19;1046973;28;20052;-75
2021/04/13 00:40:28;;;;;;;29.48;20.38;;;;;;;1.62;100.00;96954.84;1047254;28;20089;-77
2021/04/13 00:41:26;;;;;;;24.70;20.15;;;;;;;1.64;100.00;96952.81;1047221;28;20373;-76
2021/04/13 00:42:01;;;;;;;24.83;19.55;;;;;;;1.60;100.00;96955.03;1045676;28;20043;-76
2021/04/13 00:42:31;;;;;;;27.10;20.60;;;;;;;1.61;100.00;96961.94;1046946;28;20060;-76
2021/04/13 00:43:02;;;;;;;26.10;19.77;;;;;;;1.60;100.00;96956.88;1038595;28;20014;-77
2021/04/13 00:43:32;;;;;;;26.17;20.60;;;;;;;1.62;100.00;96953.03;1034749;28;20026;-76
2021/04/13 00:44:07;;;;;;;25.77;20.00;;;;;;;1.60;100.00;96951.59;1034573;28;20322;-75
2021/04/13 00:44:45;;;;;;;27.15;20.52;;;;;;;1.56;100.00;96953.78;1035981;28;20120;-76
2021/04/13 00:45:23;;;;;;;26.38;19.88;;;;;;;1.53;100.00;96954.16;1040291;28;20018;-77
2021/04/13 00:45:53;;;;;;;24.92;20.55;;;;;;;1.55;100.00;96966.16;1037018;28;20022;-76
2021/04/13 00:46:30;;;;;;;28.30;20.10;;;;;;;1.61;100.00;96961.94;1039886;28;20006;-77
2021/04/13 00:47:03;;;;;;;26.20;20.08;;;;;;;1.59;100.00;96963.13;1039570;28;20037;-76
2021/04/13 00:47:35;;;;;;;28.27;20.98;;;;;;;1.62;100.00;96960.13;1040708;28;20549;-75
2021/04/13 00:48:06;;;;;;;24.98;19.65;;;;;;;1.59;100.00;96961.31;1038184;28;20029;-76
2021/04/13 00:48:38;;;;;;;25.55;20.45;;;;;;;1.58;100.00;96956.22;1041513;28;20045;-76
2021/04/13 00:49:08;;;;;;;25.45;19.77;;;;;;;1.62;100.00;96960.13;1036848;28;20432;-75
2021/04/13 00:49:44;;;;;;;26.83;20.33;;;;;;;1.58;100.00;96964.13;1037716;28;20025;-75
2021/04/13 00:50:30;;;;;;;26.13;20.90;;;;;;;1.59;100.00;96957.84;1037536;28;20026;-76
2021/04/13 00:51:04;;;;;;;25.52;19.90;;;;;;;1.61;100.00;96954.03;1041886;28;20032;-76
2021/04/13 00:51:36;;;;;;;28.45;20.67;;;;;;;1.55;100.00;96963.50;1044839;28;20099;-76
2021/04/13 00:52:08;;;;;;;25.73;19.88;;;;;;;1.54;100.00;96961.88;1036698;28;20360;-75
2021/04/13 00:52:50;;;;;;;27.05;20.52;;;;;;;1.59;100.00;96969.22;1032794;28;20018;-75
2021/04/13 00:53:21;;;;;;;26.27;20.65;;;;;;;1.63;100.00;96957.28;1032735;28;20077;-76
2021/04/13 00:53:56;;;;;;;27.50;20.30;;;;;;;1.61;100.00;96959.31;1037236;28;20037;-76
2021/04/13 00:54:39;;;;;;;27.85;20.75;;;;;;;1.63;100.00;96959.09;1041036;28;20026;-77
2021/04/13 00:55:11;;;;;;;26.90;19.83;;;;;;;1.56;100.00;96948.50;1033377;28;20034;-76
2021/04/13 00:55:50;;;;;;;25.52;20.42;;;;;;;1.63;100.00;96954.66;1029237;28;20046;-76
2021/04/13 00:56:20;;;;;;;24.05;19.17;;;;;;;1.66;100.00;96959.53;1032044;28;20030;-76
2021/04/13 00:56:51;;;;;;;25.83;19.70;;;;;;;1.63;100.00;96957.28;1026765;28;20023;-76
2021/04/13 00:57:22;;;;;;;26.07;20.30;;;;;;;1.65;100.00;96957.91;1030150;28;20010;-76
2021/04/13 00:58:17;;;;;;;26.50;21.08;;;;;;;1.61;100.00;96963.75;1029317;28;20015;-77
2021/04/13 00:59:01;;;;;;;26.38;18.85;;;;;;;1.62;100.00;96954.84;1035862;28;20691;-76
2021/04/13 00:59:31;;;;;;;25.35;18.95;;;;;;;1.63;100.00;96967.00;1038371;28;20022;-76
2021/04/13 01:00:04;;;;;;;24.73;19.20;;;;;;;1.60;100.00;96955.03;1037767;28;20029;-76
2021/04/13 01:00:49;;;;;;;24.90;19.02;;;;;;;1.61;100.00;96959.31;1029432;28;20026;-76
2021/04/13 01:01:22;;;;;;;24.95;19.08;;;;;;;1.59;99.45;96961.31;1028103;28;20031;-76
2021/04/13 01:01:55;;;;;;;24.95;19.27;;;;;;;1.56;99.56;96953.78;1027999;28;20396;-76
2021/04/13 01:02:29;;;;;;;24.88;19.70;;;;;;;1.52;100.00;96963.88;1035992;28;20034;-77
2021/04/13 01:03:00;;;;;;;25.30;20.05;;;;;;;1.50;100.00;96970.34;1037544;28;20165;-76
2021/04/13 01:03:31;;;;;;;26.55;20.27;;;;;;;1.54;100.00;96961.88;1033462;28;20014;-76
2021/04/13 01:04:14;;;;;;;25.30;19.93;;;;;;;1.56;100.00;96959.88;1035067;28;20014;-76
2021/04/13 01:04:56;;;;;;;26.42;19.58;;;;;;;1.58;100.00;96956.22;1041626;28;20021;-76
2021/04/13 01:05:44;;;;;;;25.15;19.33;;;;;;;1.57;100.00;96960.69;1045305;28;20124;-77
2021/04/13 01:06:23;;;;;;;24.85;19.08;;;;;;;1.60;100.00;96959.50;1041696;28;20048;-76
2021/04/13 01:07:16;;;;;;;25.92;20.10;;;;;;;1.47;100.00;96961.00;1045776;28;20032;-76
2021/04/13 01:07:48;;;;;;;27.98;20.35;;;;;;;1.50;100.00;96959.81;1045650;28;20017;-76
2021/04/13 01:08:36;;;;;;;27.42;20.42;;;;;;;1.46;100.00;96954.09;1045764;28;20020;-76
2021/04/13 01:09:11;;;;;;;25.95;19.50;;;;;;;1.50;100.00;96959.81;1041937;28;20030;-76
2021/04/13 01:09:45;;;;;;;29.27;21.70;;;;;;;1.54;100.00;96958.44;1045706;28;20021;-76
2021/04/13 01:10:16;;;;;;;27.42;20.63;;;;;;;1.53;100.00;96954.16;1046170;28;20028;-76
2021/04/13 01:10:46;;;;;;;29.10;19.73;;;;;;;1.51;100.00;96956.97;1045966;28;20037;-76
2021/04/13 01:11:30;;;;;;;31.70;20.17;;;;;;;1.49;100.00;96958.19;1046152;28;20027;-75
2021/04/13 01:12:06;;;;;;;25.65;19.67;;;;;;;1.48;100.00;96959.97;1046096;28;20021;-75
2021/04/13 01:12:39;;;;;;;26.33;18.73;;;;;;;1.53;100.00;96965.50;1045299;28;20017;-76
2021/04/13 01:13:17;;;;;;;25.55;19.55;;;;;;;1.54;100.00;96966.34;1045453;28;20044;-77
2021/04/13 01:13:50;;;;;;;26.17;20.58;;;;;;;1.47;100.00;96961.00;1047976;28;20047;-77
2021/04/13 01:14:20;;;;;;;27.42;19.35;;;;;;;1.47;100.00;96961.00;1045763;28;20028;-76
2021/04/13 01:14:50;;;;;;;27.23;19.80;;;;;;;1.45;100.00;96964.84;1041390;28;20029;-76
2021/04/13 01:15:21;;;;;;;25.73;19.53;;;;;;;1.42;100.00;96962.56;1033148;28;20015;-76
2021/04/13 01:15:51;;;;;;;26.40;20.13;;;;;;;1.41;100.00;96966.22;1033344;28;20082;-76
2021/04/13 01:16:40;;;;;;;25.23;20.17;;;;;;;1.44;100.00;96958.75;1029334;28;20031;-77
2021/04/13 01:17:11;;;;;;;26.17;19.20;;;;;;;1.45;100.00;96960.38;1035953;28;20172;-76
2021/04/13 01:17:42;;;;;;;25.53;19.13;;;;;;;1.43;100.00;96965.00;1029139;28;20046;-76
2021/04/13 01:18:37;;;;;;;25.95;20.40;;;;;;;1.37;100.00;96963.13;1034271;28;20531;-76
2021/04/13 01:19:45;;;;;;;27.15;20.40;;;;;;;1.39;100.00;96969.03;1037020;28;20030;-76
2021/04/13 01:20:15;;;;;;;25.58;19.45;;;;;;;1.41;100.00;96964.38;1040695;28;20430;-76
2021/04/13 01:21:00;;;;;;;26.70;19.33;;;;;;;1.41;100.00;96958.31;1040598;28;20014;-76
2021/04/13 01:21:47;;;;;;;28.52;21.65;;;;;;;1.45;100.00;96960.38;1040638;28;20017;-76
2021/04/13 01:22:30;;;;;;;27.40;20.10;;;;;;;1.43;100.00;96965.00;1037045;28;20037;-76
2021/04/13 01:23:08;;;;;;;27.85;20.05;;;;;;;1.45;100.00;96957.75;1033524;28;20054;-77
2021/04/13 01:23:48;;;;;;;27.65;21.05;;;;;;;1.43;100.00;96959.72;1036699;28;20033;-76
2021/04/13 01:24:25;;;;;;;28.70;22.25;;;;;;;1.44;100.00;96961.38;1036460;28;20029;-77
2021/04/13 01:25:14;;;;;;;28.13;20.90;;;;;;;1.37;100.00;96959.69;1032114;28;20038;-76
2021/04/13 01:25:45;;;;;;;26.92;21.10;;;;;;;1.32;100.00;96954.97;1032693;28;20117;-76
2021/04/13 01:26:16;;;;;;;26.20;20.48;;;;;;;1.29;100.00;96963.28;1032450;28;20026;-76
2021/04/13 01:26:47;;;;;;;29.20;21.67;;;;;;;1.27;100.00;96957.34;1035013;28;20133;-76
2021/04/13 01:27:19;;;;;;;27.27;21.05;;;;;;;1.28;100.00;96959.81;1032456;28;20479;-76
2021/04/13 01:27:53;;;;;;;28.23;21.38;;;;;;;1.28;100.00;96962.47;1032693;28;20228;-77
2021/04/13 01:28:26;;;;;;;27.02;21.90;;;;;;;1.34;100.00;96965.34;1037285;28;20173;-77
2021/04/13 01:28:57;;;;;;;30.08;21.95;;;;;;;1.32;100.00;96964.69;1037491;28;20028;-78
2021/04/13 01:29:28;;;;;;;27.07;21.17;;;;;;;1.29;100.00;96965.91;1036487;28;20025;-76
2021/04/13 01:30:02;;;;;;;27.50;21.92;;;;;;;1.28;100.00;96961.66;1032358;28;20026;-77
2021/04/13 01:30:39;;;;;;;31.13;22.85;;;;;;;1.32;100.00;96959.44;1032274;28;20117;-76
2021/04/13 01:31:41;;;;;;;29.95;23.33;;;;;;;1.28;100.00;96965.09;1033721;28;20491;-76
2021/04/13 01:32:09;;;;;;;29.60;21.83;;;;;;;1.29;100.00;96968.53;1040173;28;20033;-76
2021/04/13 01:32:39;;;;;;;30.00;21.53;;;;;;;1.28;100.00;96964.28;1040407;28;20029;-76
2021/04/13 01:33:20;;;;;;;30.20;22.77;;;;;;;1.25;100.00;96965.44;1036302;28;20595;-77
2021/04/13 01:33:53;;;;;;;;;;;;;;;1.28;100.00;96966.91;1040908;28;20022;-77
2021/04/13 01:34:39;;;;;;;27.77;20.30;;;;;;;1.30;100.00;96967.53;1040198;28;19913;-77
2021/04/13 01:35:13;;;;;;;28.50;20.48;;;;;;;1.28;100.00;96965.09;1036225;28;20030;-76
2021/04/13 01:35:47;;;;;;;31.77;21.10;;;;;;;1.32;100.00;96960.25;1036321;28;20121;-76
2021/04/13 01:36:26;;;;;;;27.60;22.40;;;;;;;1.39;100.00;96965.59;1036156;28;20053;-76
2021/04/13 01:37:22;;;;;;;30.67;21.60;;;;;;;1.29;100.00;96968.53;1040781;28;20025;-75
2021/04/13 01:38:02;;;;;;;29.17;22.05;;;;;;;1.34;100.00;96967.97;1040871;28;20084;-76
2021/04/13 01:38:39;;;;;;;32.78;21.42;;;;;;;1.26;100.00;96974.16;1044522;28;20082;-76
2021/04/13 01:39:17;;;;;;;27.08;20.98;;;;;;;1.28;100.00;96969.53;1036339;28;20022;-76
2021/04/13 01:39:54;;;;;;;26.08;20.02;;;;;;;1.23;100.00;96967.47;1027639;28;20097;-76
2021/04/13 01:40:41;;;;;;;33.15;21.70;;;;;;;1.22;100.00;96972.91;1028231;28;20027;-76
2021/04/13 01:41:57;;;;;;;31.70;22.67;;;;;;;1.32;100.00;96960.25;1036081;28;20022;-76
2021/04/13 01:42:29;;;;;;;28.85;20.48;;;;;;;1.32;100.00;96965.50;1032211;28;20558;-77
2021/04/13 01:43:00;;;;;;;27.95;21.73;;;;;;;1.31;100.00;96966.53;1028216;28;20061;-77
2021/04/13 01:43:36;;;;;;;27.93;20.93;;;;;;;1.33;100.00;96964.50;1032865;28;20097;-76
2021/04/13 01:44:06;;;;;;;29.65;23.25;;;;;;;1.39;100.00;96969.03;1034620;28;20026;-76
2021/04/13 01:44:43;;;;;;;31.53;24.00;;;;;;;1.34;100.00;96968.78;1029396;28;20278;-77
2021/04/13 01:45:18;;;;;;;31.52;24.63;;;;;;;1.32;100.00;96965.50;1032397;28;20015;-76
2021/04/13 01:45:49;;;;;;;31.30;23.88;;;;;;;1.26;100.00;96968.91;1028478;28;20027;-78
2021/04/13 01:46:19;;;;;;;33.30;24.17;;;;;;;1.26;100.00;96971.53;1027274;28;20039;-76
2021/04/13 01:46:49;;;;;;;31.03;22.53;;;;;;;1.23;100.00;96969.28;1027951;28;20062;-76
2021/04/13 01:47:21;;;;;;;33.10;23.20;;;;;;;1.23;100.00;96964.03;1027022;28;20038;-76
2021/04/13 01:47:53;;;;;;;30.95;23.73;;;;;;;1.23;100.00;96964.03;1024805;28;20065;-76
2021/04/13 01:48:23;;;;;;;28.95;22.67;;;;;;;1.27;100.00;96971.34;1024623;28;20065;-77
2021/04/13 01:48:53;;;;;;;31.67;23.27;;;;;;;1.35;100.00;96967.78;1028594;28;20027;-76
2021/04/13 01:49:24;;;;;;;35.00;24.90;;;;;;;1.36;100.00;96969.41;1032387;28;20049;-77
2021/04/13 01:49:59;;;;;;;33.40;23.90;;;;;;;1.38;100.00;96970.03;1028781;28;20053;-77
2021/04/13 01:50:31;;;;;;;32.28;23.85;;;;;;;1.38;100.00;96962.13;1034464;28;20022;-76
2021/04/13 01:51:04;;;;;;;30.15;23.83;;;;;;;1.40;100.00;96972.50;1037556;28;20467;-77
2021/04/13 01:51:34;;;;;;;28.58;22.73;;;;;;;1.39;100.00;96968.22;1030103;28;20018;-76
2021/04/13 01:52:12;;;;;;;26.40;21.43;;;;;;;1.36;100.00;96963.31;1027370;28;20031;-75
2021/04/13 01:52:44;;;;;;;29.50;23.00;;;;;;;1.37;100.00;96965.75;1024879;29;20035;-76
2021/04/13 01:53:16;;;;;;;26.73;21.35;;;;;;;1.37;100.00;96967.59;1027397;28;20059;-76
2021/04/13 01:53:49;;;;;;;29.45;23.10;;;;;;;1.35;100.00;96967.78;1033831;28;20169;-77
2021/04/13 01:54:19;;;;;;;25.60;21.38;;;;;;;1.38;100.00;96971.84;1034443;28;20461;-76
2021/04/13 01:54:50;;;;;;;32.23;22.83;;;;;;;1.34;100.00;96970.59;1036253;28;20049;-76
2021/04/13 01:55:25;;;;;;;27.70;22.20;;;;;;;1.32;100.00;96962.88;1036194;28;20025;-76
2021/04/13 01:55:58;;;;;;;30.85;23.42;;;;;;;1.32;100.00;96967.34;1037304;28;20067;-77
2021/04/13 01:56:55;;;;;;;28.60;22.38;;;;;;;1.36;100.00;96965.97;1040169;28;20032;-76
2021/04/13 01:57:37;;;;;;;26.40;20.45;;;;;;;1.32;100.00;96960.25;1033122;28;20392;-74
2021/04/13 01:58:31;;;;;;;28.77;20.80;;;;;;;1.34;100.00;96957.44;1039188;28;20053;-76
2021/04/13 01:59:05;;;;;;;28.35;21.65;;;;;;;1.35;100.00;96965.16;1039642;28;20522;-76
2021/04/13 01:59:38;;;;;;;27.70;20.88;;;;;;;1.27;100.00;96967.88;1040194;28;20025;-77
2021/04/13 02:00:15;;;;;;;29.02;22.13;;;;;;;1.29;100.00;96968.53;1040381;28;20057;-76
2021/04/13 02:01:13;;;;;;;34.92;22.63;;;;;;;1.30;100.00;96965.72;1036254;28;20034;-77
2021/04/13 02:01:46;;;;;;;28.15;20.67;;;;;;;1.36;100.00;96964.13;1036877;28;20022;-77
2021/04/13 02:02:51;;;;;;;29.23;21.63;;;;;;;1.36;100.00;96965.97;1031797;28;20022;-77
2021/04/13 02:03:26;;;;;;;29.45;21.35;;;;;;;1.36;100.00;96963.31;1036057;28;20128;-77
2021/04/13 02:04:18;;;;;;;30.45;21.88;;;;;;;1.35;100.00;96962.50;1034815;28;20088;-77
2021/04/13 02:04:51;;;;;;;30.38;21.70;;;;;;;1.37;100.00;96962.31;1036070;28;20096;-77
2021/04/13 02:05:25;;;;;;;32.13;22.10;;;;;;;1.34;100.00;96963.53;1028161;28;20026;-77
2021/04/13 02:06:01;;;;;;;29.42;22.52;;;;;;;1.34;100.00;96965.34;1032172;28;20038;-76
2021/04/13 02:06:40;;;;;;;31.75;23.58;;;;;;;1.39;100.00;96961.13;1031715;28;20092;-75
2021/04/13 02:08:17;;;;;;;30.17;23.20;;;;;;;1.43;100.00;96967.63;1032039;28;20030;-77
2021/04/13 02:08:51;;;;;;;28.17;22.27;;;;;;;1.42;100.00;96967.84;1032889;28;20032;-78
2021/04/13 02:09:44;;;;;;;32.58;23.63;;;;;;;1.46;100.00;96963.81;1031993;28;20152;-77
2021/04/13 02:10:24;;;;;;;28.90;22.13;;;;;;;1.44;100.00;96964.03;1031966;28;20018;-76
2021/04/13 02:11:06;;;;;;;31.35;22.35;;;;;;;1.45;100.00;96968.28;1032984;28;20022;-77
2021/04/13 02:11:37;;;;;;;31.40;23.35;;;;;;;1.47;100.00;96971.53;1036948;28;20068;-77
2021/04/13 02:12:12;;;;;;;30.13;23.50;;;;;;;1.46;100.00;96964.63;1031861;28;20034;-77
2021/04/13 02:12:43;;;;;;;33.03;24.50;;;;;;;1.47;100.00;96960.19;1031882;28;20417;-77
2021/04/13 02:13:18;;;;;;;26.85;20.95;;;;;;;1.49;100.00;96963.47;1033267;28;20565;-77
2021/04/13 02:13:57;;;;;;;29.75;23.02;;;;;;;1.44;100.00;96971.94;1033318;28;20029;-77
2021/04/13 02:14:33;;;;;;;25.40;20.15;;;;;;;1.41;100.00;96967.03;1032054;28;20484;-77
2021/04/13 02:15:41;;;;;;;30.70;22.05;;;;;;;1.41;100.00;96972.28;1030506;28;20027;-76
2021/04/13 02:16:21;;;;;;;33.28;21.13;;;;;;;1.37;100.00;96970.22;1036077;28;20022;-76
2021/04/13 02:16:56;;;;;;;;;;;;;;;1.38;100.00;96971.84;1034694;28;20026;-77
2021/04/13 02:17:30;;;;;;;29.48;21.40;;;;;;;1.39;100.00;96969.03;1036080;28;19905;-78
2021/04/13 02:18:06;;;;;;;30.52;20.25;;;;;;;1.41;100.00;96966.22;1034880;28;20390;-77
2021/04/13 02:18:38;;;;;;;29.48;21.15;;;;;;;1.42;100.00;96970.47;1030324;28;20029;-77
2021/04/13 02:19:09;;;;;;;31.00;21.75;;;;;;;1.36;100.00;96961.50;1027994;28;20023;-78
2021/04/13 02:19:46;;;;;;;30.30;23.20;;;;;;;1.40;100.00;96959.31;1028873;28;20408;-77
2021/04/13 02:20:19;;;;;;;28.05;21.58;;;;;;;1.36;100.00;96961.50;1029610;28;20015;-77
2021/04/13 02:20:50;;;;;;;33.20;23.85;;;;;;;1.39;100.00;96969.03;1025335;28;20363;-77
2021/04/13 02:21:28;;;;;;;30.67;22.20;;;;;;;1.39;100.00;96962.97;1027769;28;20098;-78
2021/04/13 02:22:05;;;;;;;28.10;21.80;;;;;;;1.42;100.00;96968.66;1029402;28;20019;-76
2021/04/13 02:22:43;;;;;;;29.17;22.15;;;;;;;1.42;100.00;96968.66;1036285;28;20026;-77
2021/04/13 02:23:13;;;;;;;29.13;21.67;;;;;;;1.41;100.00;96972.28;1039015;28;20026;-77
2021/04/13 02:23:49;;;;;;;30.03;22.70;;;;;;;1.40;100.00;96969.84;1031926;28;20026;-76
2021/04/13 02:24:28;;;;;;;31.13;22.20;;;;;;;1.35;100.00;96964.34;1023896;29;20078;-76
2021/04/13 02:25:00;;;;;;;32.10;23.48;;;;;;;1.35;100.00;96964.34;1023954;29;20019;-77
2021/04/13 02:25:31;;;;;;;28.55;22.90;;;;;;;1.35;100.00;96966.97;1027879;28;20050;-77
2021/04/13 02:26:04;;;;;;;31.77;23.52;;;;;;;1.36;100.00;96972.03;1025443;28;20050;-77
2021/04/13 02:26:45;;;;;;;26.08;21.42;;;;;;;1.38;100.00;96969.22;1023984;28;20094;-77
2021/04/13 02:27:18;;;;;;;30.20;23.77;;;;;;;1.41;100.00;96969.66;1023884;29;20384;-77
2021/04/13 02:27:48;;;;;;;32.53;24.65;;;;;;;1.45;100.00;96970.91;1027928;28;20071;-77
2021/04/13 02:28:19;;;;;;;30.23;23.03;;;;;;;1.44;100.00;96977.19;1027673;28;20118;-77
2021/04/13 02:28:50;;;;;;;30.20;23.67;;;;;;;1.48;100.00;96967.06;1028633;28;20498;-77
2021/04/13 02:29:23;;;;;;;30.75;24.08;;;;;;;1.48;100.00;96969.72;1023774;29;20599;-77
2021/04/13 02:29:54;;;;;;;32.17;23.80;;;;;;;1.46;100.00;96969.91;1023785;29;20047;-77
2021/04/13 02:30:31;;;;;;;33.13;23.90;;;;;;;1.46;100.00;96969.09;1024423;28;20023;-77
2021/04/13 02:31:06;;;;;;;34.83;24.52;;;;;;;1.46;100.00;96971.72;1032234;28;20019;-77
2021/04/13 02:31:37;;;;;;;32.38;22.90;;;;;;;1.50;100.00;96975.63;1037864;28;20430;-76
2021/04/13 02:32:24;;;;;;;36.70;22.10;;;;;;;1.50;100.00;96973.81;1035960;28;20018;-77
2021/04/13 02:32:54;;;;;;;30.98;21.48;;;;;;;1.46;100.00;96975.19;1039850;28;20069;-77
2021/04/13 02:33:51;;;;;;;28.97;22.27;;;;;;;1.43;100.00;96965.00;1042528;28;20021;-78
2021/04/13 02:34:24;;;;;;;27.50;21.02;;;;;;;1.39;100.00;96963.78;1038905;28;20048;-77
2021/04/13 02:34:57;;;;;;;28.63;21.33;;;;;;;1.38;100.00;96972.66;1039850;28;20034;-77
2021/04/13 02:35:29;;;;;;;27.90;21.60;;;;;;;1.40;100.00;96972.50;1036042;28;20026;-78
2021/04/13 02:36:15;;;;;;;28.67;21.35;;;;;;;1.38;100.00;96970.03;1036950;28;20391;-79
2021/04/13 02:36:50;;;;;;;27.70;20.73;;;;;;;1.37;100.00;96967.59;1040222;28;20120;-75
2021/04/13 02:37:26;;;;;;;28.70;22.33;;;;;;;1.35;100.00;96966.97;1039183;28;20029;-77
2021/04/13 02:38:01;;;;;;;29.42;22.48;;;;;;;1.36;100.00;96974.66;1035868;28;20114;-75
2021/04/13 02:38:31;;;;;;;33.10;21.63;;;;;;;1.33;100.00;96963.69;1034067;28;20026;-77
2021/04/13 02:39:02;;;;;;;31.63;22.77;;;;;;;1.30;100.00;96967.53;1035881;28;20033;-77
2021/04/13 02:39:33;;;;;;;31.77;21.27;;;;;;;1.25;100.00;96973.34;1032632;28;20102;-75
2021/04/13 02:40:06;;;;;;;29.95;22.17;;;;;;;1.23;100.00;96967.47;1032002;28;20022;-76
2021/04/13 02:40:52;;;;;;;29.10;22.02;;;;;;;1.19;100.00;96963.56;1032319;28;20459;-76
2021/04/13 02:41:28;;;;;;;31.52;23.00;;;;;;;1.18;100.00;96974.31;1030363;28;20023;-77
2021/04/13 02:42:06;;;;;;;30.77;23.40;;;;;;;1.17;100.00;96964.75;1031190;28;20101;-76
2021/04/13 02:42:38;;;;;;;32.60;23.65;;;;;;;1.12;100.00;96973.19;1031676;28;20073;-76
2021/04/13 02:43:11;;;;;;;33.13;23.88;;;;;;;1.10;100.00;96975.22;1031114;28;20034;-76
2021/04/13 02:43:47;;;;;;;33.40;24.63;;;;;;;1.13;100.00;96979.31;1023767;29;20523;-76
2021/04/13 02:44:18;;;;;;;27.55;21.98;;;;;;;1.14;100.00;96968.59;1025116;28;20035;-77
2021/04/13 02:44:59;;;;;;;32.70;23.13;;;;;;;1.13;100.00;96974.84;1026699;28;20035;-76
2021/04/13 02:45:37;;;;;;;34.67;24.83;;;;;;;1.11;100.00;96971.56;1036631;28;20030;-76
2021/04/13 02:46:20;;;;;;;30.30;23.13;;;;;;;1.16;100.00;96973.66;1034411;28;20509;-76
2021/04/13 02:46:56;;;;;;;33.22;23.23;;;;;;;1.20;100.00;96967.84;1036153;28;20475;-75
2021/04/13 02:47:27;;;;;;;32.25;22.60;;;;;;;1.24;100.00;96977.00;1031942;28;20038;-76
2021/04/13 02:48:12;;;;;;;30.67;23.27;;;;;;;1.25;100.00;96978.63;1032237;28;20034;-76
2021/04/13 02:48:45;;;;;;;30.50;21.60;;;;;;;1.26;100.00;96980.25;1031933;28;20428;-76
2021/04/13 02:49:16;;;;;;;34.88;22.30;;;;;;;1.31;100.00;96977.06;1034713;28;20361;-76